METAR Data
IDs: Format: Raw Decoded Include TAF

Data at: 1224 UTC 16 Jul 2019

KGNT 161215Z AUTO 00000KT 10SM CLR 12/08 A3024 RMK AO2 T01170081
KGNT 161155Z AUTO 00000KT 10SM CLR 12/08 A3024 RMK AO2 T01200079 10196 20106
KGNT 161135Z AUTO 00000KT 10SM CLR 11/08 A3023 RMK AO2 T01120076
KGNT 161115Z AUTO 00000KT 10SM CLR 13/09 A3023 RMK AO2 T01310089
KGNT 161055Z AUTO 00000KT 10SM CLR 14/09 A3022 RMK AO2 T01380090
KGNT 161035Z AUTO 00000KT 10SM CLR 15/09 A3022 RMK AO2 T01500093
KGNT 161015Z AUTO 18004KT 10SM CLR 15/09 A3022 RMK AO2 T01540091
KGNT 160955Z AUTO 16005KT 10SM CLR 14/09 A3021 RMK AO2 T01390088
KGNT 160935Z AUTO 16004KT 10SM CLR 14/08 A3021 RMK AO2 T01360079
KGNT 160915Z AUTO 00000KT 10SM CLR 15/08 A3022 RMK AO2 T01460084
KGNT 160855Z AUTO 00000KT 10SM CLR 15/09 A3022 RMK AO2 T01460088
KGNT 160835Z AUTO 00000KT 10SM CLR 17/09 A3023 RMK AO2 T01660091
KGNT 160755Z AUTO 27003KT 10SM CLR 16/10 A3024 RMK AO2 T01580095
KGNT 160735Z AUTO 27005KT 10SM CLR 17/10 A3026 RMK AO2 T01680096
KGNT 160715Z AUTO 31004KT 10SM CLR 17/09 A3026 RMK AO2 T01670090
KGNT 160655Z AUTO 00000KT 10SM CLR 18/09 A3026 RMK AO2 T01760093 403130145
KGNT 160635Z AUTO 01003KT 10SM CLR 19/09 A3026 RMK AO2 T01940093
KGNT 160615Z AUTO 00000KT 10SM SCT120 19/10 A3026 RMK AO2 T01910096
KGNT 160555Z AUTO 00000KT 10SM BKN120 19/10 A3026 RMK AO2 T01940095 10278 20182
KGNT 160535Z AUTO 25005KT 10SM BKN110 20/10 A3026 RMK AO2 T01960097
KGNT 160515Z AUTO 00000KT 10SM BKN110 20/10 A3026 RMK AO2 T01960100
KGNT 160455Z AUTO 36003KT 10SM BKN110 21/10 A3028 RMK AO2 T02050097
KGNT 160435Z AUTO 32007G17KT 10SM BKN110 20/09 A3027 RMK AO2 T01970090
KGNT 160415Z AUTO 00000KT 10SM SCT120 19/10 A3025 RMK AO2 T01850096
KGNT 160355Z AUTO 15003KT 10SM CLR 20/09 A3023 RMK AO2 T01980094
KGNT 160335Z AUTO 00000KT 10SM CLR 21/10 A3023 RMK AO2 T02130096
KGNT 160315Z AUTO 09004KT 10SM CLR 22/09 A3023 RMK AO2 T02170094
KGNT 160255Z AUTO 00000KT 10SM CLR 22/09 A3022 RMK AO2 T02220090
KGNT 160235Z AUTO 12007KT 10SM CLR 23/09 A3022 RMK AO2 T02260090
KGNT 160215Z AUTO 22012G20KT 10SM CLR 23/10 A3021 RMK AO2 T02300095
KGNT 160155Z AUTO 22013G21KT 10SM CLR 24/09 A3021 RMK AO2 T02380090
KGNT 160135Z AUTO 22014G19KT 10SM CLR 25/09 A3021 RMK AO2 T02460086
KGNT 160115Z AUTO 20012G17KT 10SM SCT120 25/08 A3021 RMK AO2 T02450083
KGNT 160055Z AUTO 21011G27KT 10SM BKN120 25/09 A3021 RMK AO2 LTG DSNT SW T02460086 PNO
KGNT 160035Z AUTO 21009G15KT 10SM SCT120 27/06 A3021 RMK AO2 T02700056
KGNT 160015Z AUTO 00000KT 10SM CLR 27/06 A3021 RMK AO2 T02730058
KGNT 152355Z AUTO 01007G15KT 10SM CLR 28/06 A3021 RMK AO2 T02760061 10313 20251
KGNT 152335Z AUTO 01010KT 10SM CLR 27/07 A3021 RMK AO2 LTG DSNT S T02730070
KGNT 152315Z AUTO 33010KT 10SM SCT095 27/08 A3021 RMK AO2 LTG DSNT SE AND S T02670083
KGNT 152255Z AUTO 31012KT 10SM CLR 27/08 A3022 RMK AO2 T02660076
KGNT 152235Z AUTO 36010KT 10SM CLR 30/07 A3021 RMK AO2 LTG DSNT SE AND S T02990065
KGNT 152215Z AUTO 33010KT 10SM SCT110 30/08 A3021 RMK AO2 LTG DSNT NW T02960075
KGNT 152155Z AUTO 36012KT 10SM -RA SCT038 SCT065 BKN110 28/08 A3022 RMK AO2 LTG DSNT SE T02810081
KGNT 152135Z AUTO 33007KT 10SM SCT110 28/08 A3023 RMK AO2 T02800077
KGNT 152115Z AUTO 29008KT 10SM VCTS SCT120 28/08 A3023 RMK AO2 LTG DSNT E SE AND NW T02820078
KGNT 152055Z AUTO 29006KT 10SM VCTS CLR 28/09 A3023 RMK AO2 LTG DSNT ALQS T02780085
KGNT 152035Z AUTO 29011KT 10SM SCT065 SCT080 BKN110 27/09 A3023 RMK AO2 LTG DSNT ALQS T02700090
KGNT 152015Z AUTO 30015G19KT 10SM VCTS SCT110 28/05 A3024 RMK AO2 LTG DSNT ALQS T02830047
KGNT 151955Z AUTO 26009G16KT 10SM SCT120 27/07 A3024 RMK AO2 LTG DSNT N AND NW T02700070
KGNT 151935Z AUTO 24013G23KT 10SM VCTS CLR 25/09 A3026 RMK AO2 LTG DSNT W AND NW T02520086
KGNT 151915Z AUTO 24015KT 10SM TS CLR 27/08 A3026 RMK AO2 LTG DSNT N E AND W T02650081
KGNT 151855Z AUTO 25012G20KT 10SM CLR 27/08 A3026 RMK AO2 LTG DSNT SW AND W T02720080
KGNT 151835Z AUTO 27004KT 10SM VCTS CLR 31/06 A3026 RMK AO2 LTG DSNT S AND SW T03060064
KGNT 151815Z AUTO 31006KT 10SM TS CLR 30/07 A3028 RMK AO2 LTG DSNT S THRU W T03030071
KGNT 151755Z AUTO 03004KT 10SM TS CLR 30/07 A3028 RMK AO2 LTG DSNT S T02960074 10296 20155
KGNT 151735Z AUTO 36007KT 10SM CLR 29/08 A3028 RMK AO2 T02880079
KGNT 151715Z AUTO 33007KT 10SM CLR 29/08 A3029 RMK AO2 T02850084
KGNT 151655Z AUTO 01003KT 10SM CLR 27/08 A3029 RMK AO2 T02740079
KGNT 151635Z AUTO 34005KT 10SM CLR 27/09 A3030 RMK AO2 T02700089
KGNT 151615Z AUTO 00000KT 10SM CLR 26/09 A3030 RMK AO2 T02640087
KGNT 151555Z AUTO 00000KT 10SM CLR 26/09 A3031 RMK AO2 T02560087
KGNT 151535Z AUTO 00000KT 10SM CLR 24/09 A3031 RMK AO2 T02430094
KGNT 151515Z AUTO 00000KT 10SM CLR 24/09 A3031 RMK AO2 T02350089
KGNT 151455Z AUTO 00000KT 10SM CLR 22/11 A3032 RMK AO2 T02220110
KGNT 151435Z AUTO 00000KT 10SM CLR 22/11 A3032 RMK AO2 T02150109
KGNT 151415Z AUTO 35003KT 10SM CLR 20/12 A3032 RMK AO2 T01950118
KGNT 151355Z AUTO 00000KT 10SM CLR 18/11 A3032 RMK AO2 T01840112
KGNT 151335Z AUTO 00000KT 10SM CLR 18/11 A3032 RMK AO2 T01750108
KGNT 151315Z AUTO 00000KT 10SM CLR 17/11 A3032 RMK AO2 T01680110
KGNT 151255Z AUTO 00000KT 10SM CLR 16/11 A3032 RMK AO2 T01600109
KGNT 151235Z AUTO 00000KT 10SM CLR 16/11 A3031 RMK AO2 T01580107
KGNT 151215Z AUTO 00000KT 10SM CLR 16/11 A3030 RMK AO2 T01590105
KGNT 151155Z AUTO 21004KT 10SM CLR 17/10 A3030 RMK AO2 70010 T01660102 10201 20145
KGNT 151135Z AUTO 00000KT 10SM CLR 16/11 A3031 RMK AO2 T01570105
KGNT 151115Z AUTO 00000KT 10SM SCT110 16/11 A3031 RMK AO2 T01640108
KGNT 151055Z AUTO 00000KT 10SM SCT110 17/11 A3031 RMK AO2 T01730107
KGNT 151035Z AUTO 00000KT 10SM CLR 17/11 A3031 RMK AO2 T01740110
KGNT 151015Z AUTO 20003KT 10SM CLR 18/11 A3030 RMK AO2 T01750112
KGNT 150955Z AUTO 08004KT 10SM CLR 18/11 A3031 RMK AO2 T01840111
KGNT 150935Z AUTO 00000KT 10SM CLR 18/12 A3031 RMK AO2 T01800115
KGNT 150915Z AUTO 00000KT 10SM CLR 19/12 A3032 RMK AO2 T01870115
KGNT 150855Z AUTO 30006KT 10SM CLR 20/10 A3032 RMK AO2 T01950102
KGNT 150835Z AUTO 29007KT 10SM SCT100 19/12 A3032 RMK AO2 T01910115
KGNT 150815Z AUTO 29011KT 10SM OVC100 20/10 A3034 RMK AO2 LTG DSNT NW T02000101
KGNT 150755Z AUTO 31004KT 10SM OVC100 19/11 A3033 RMK AO2 LTG DSNT NW T01910107
KGNT 150735Z AUTO 35003KT 10SM OVC110 20/11 A3032 RMK AO2 T01960112
KGNT 150715Z AUTO 21003KT 10SM BKN110 20/10 A3032 RMK AO2 T01980104
KGNT 150655Z AUTO 19003KT 10SM BKN110 19/11 A3032 RMK AO2 LTG DSNT E T01920106 403170146
KGNT 150635Z AUTO 17004KT 10SM -RA SCT050 SCT080 OVC110 19/11 A3032 RMK AO2 T01910106
KGNT 150615Z AUTO 30009KT 10SM SCT048 SCT060 BKN100 20/10 A3031 RMK AO2 T01950099
KGNT 150555Z AUTO 31008KT 10SM SCT095 BKN110 20/09 A3031 RMK AO2 T01980094 10256 20195
KGNT 150535Z AUTO 32006KT 10SM BKN120 20/10 A3030 RMK AO2 T02000102
KGNT 150515Z AUTO 31006KT 10SM SCT120 20/11 A3030 RMK AO2 T01960107
KGNT 150455Z AUTO 00000KT 10SM SCT120 23/08 A3031 RMK AO2 T02250080
KGNT 150435Z AUTO 00000KT 10SM SCT120 23/08 A3031 RMK AO2 T02250079
KGNT 150415Z AUTO 33004KT 10SM CLR 23/07 A3030 RMK AO2 T02310074
KGNT 150355Z AUTO 32004KT 10SM CLR 22/08 A3030 RMK AO2 T02240080
KGNT 150335Z AUTO 25013KT 10SM SCT110 23/08 A3029 RMK AO2 T02300076
KGNT 150315Z AUTO 25013G18KT 10SM BKN120 24/07 A3028 RMK AO2 T02350071
KGNT 150255Z AUTO 25014G17KT 10SM CLR 23/08 A3028 RMK AO2 LTG DSNT NE T02300082
KGNT 150235Z AUTO 24012KT 10SM CLR 23/08 A3028 RMK AO2 T02310082
KGNT 150215Z AUTO 24011KT 10SM CLR 23/09 A3028 RMK AO2 LTG DSNT W T02340086
KGNT 150155Z AUTO 25009KT 10SM SCT100 24/09 A3028 RMK AO2 T02380091
KGNT 150135Z AUTO 24008KT 10SM BKN100 24/13 A3028 RMK AO2 LTG DSNT W AND NW T02350131
KGNT 150115Z AUTO 21003KT 10SM SCT110 24/13 A3026 RMK AO2 T02380132
KGNT 150055Z AUTO 00000KT 10SM SCT100 25/09 A3026 RMK AO2 LTG DSNT NW T02510094
KGNT 150035Z AUTO 00000KT 10SM SCT110 25/12 A3026 RMK AO2 LTG DSNT NW T02510122